Time;durP1;ratioP1;P1;durP2;ratioP2;P2;SDS_P1;SDS_P2;PMS_P1;PMS_P2;Temp;Humidity;BMP_temperature;BMP_pressure;BME280_temperature;BME280_humidity;BME280_pressure;Samples;Min_cycle;Max_cycle;Signal;HPM_P1;HPM_P2
2021/08/23 00:00:57;;;;;;;6.28;3.17;;;14.40;99.90;;;;;;5119363;28;20030;-80
2021/08/23 00:03:23;;;;;;;5.82;2.90;;;14.30;99.90;;;;;;5118198;28;20023;-80
2021/08/23 00:05:48;;;;;;;4.75;3.30;;;14.30;99.90;;;;;;5117337;28;20115;-80
2021/08/23 00:08:15;;;;;;;5.93;3.20;;;14.30;99.90;;;;;;5117095;28;20027;-80
2021/08/23 00:10:41;;;;;;;6.55;3.60;;;14.20;99.90;;;;;;5120534;28;20379;-79
2021/08/23 00:13:07;;;;;;;4.97;3.33;;;14.20;99.90;;;;;;5113581;28;20024;-80
2021/08/23 00:15:33;;;;;;;5.60;3.30;;;14.10;99.90;;;;;;5117584;28;20028;-80
2021/08/23 00:17:59;;;;;;;5.60;3.05;;;14.10;99.90;;;;;;5098318;28;20030;-80
2021/08/23 00:20:32;;;;;;;7.60;3.33;;;14.10;99.90;;;;;;5117097;28;20032;-81
2021/08/23 00:22:57;;;;;;;5.88;3.22;;;14.00;99.90;;;;;;5117222;28;20076;-80
2021/08/23 00:25:23;;;;;;;7.63;3.30;;;14.00;99.90;;;;;;5117878;28;20028;-80
2021/08/23 00:27:49;;;;;;;4.25;3.33;;;14.00;99.90;;;;;;5097390;28;20081;-80
2021/08/23 00:30:16;;;;;;;10.65;3.60;;;14.00;99.90;;;;;;5115483;28;20028;-78
2021/08/23 00:32:42;;;;;;;4.68;3.20;;;13.90;99.90;;;;;;5113916;28;20031;-77
2021/08/23 00:35:09;;;;;;;7.78;3.22;;;13.90;99.90;;;;;;5110951;28;20115;-79
2021/08/23 00:37:35;;;;;;;7.47;3.10;;;13.90;99.90;;;;;;5114442;28;20024;-78
2021/08/23 00:40:02;;;;;;;6.05;3.15;;;13.80;99.90;;;;;;5114902;28;20111;-78
2021/08/23 00:42:28;;;;;;;6.47;3.22;;;13.80;99.90;;;;;;5117711;28;20031;-78
2021/08/23 00:44:54;;;;;;;5.78;3.33;;;13.80;99.90;;;;;;5110341;28;20106;-78
2021/08/23 00:47:19;;;;;;;4.85;3.03;;;13.70;99.90;;;;;;5117893;28;20032;-78
2021/08/23 00:49:45;;;;;;;7.35;3.10;;;13.70;99.90;;;;;;5117706;28;20042;-79
2021/08/23 00:52:10;;;;;;;6.10;3.67;;;13.70;99.90;;;;;;5117752;28;20027;-79
2021/08/23 00:54:37;;;;;;;7.15;3.65;;;13.70;99.90;;;;;;5107305;28;20461;-80
2021/08/23 00:57:04;;;;;;;7.70;3.65;;;13.60;99.90;;;;;;5113323;28;20028;-78
2021/08/23 00:59:36;;;;;;;7.75;3.38;;;13.70;99.90;;;;;;5087895;28;20460;-78
2021/08/23 01:02:08;;;;;;;7.15;3.53;;;13.60;99.90;;;;;;5109725;28;20019;-79
2021/08/23 01:04:56;;;;;;;7.15;3.03;;;13.60;99.90;;;;;;5115182;28;20054;-79
2021/08/23 01:07:26;;;;;;;5.43;3.50;;;13.60;99.90;;;;;;5113212;28;20027;-78
2021/08/23 01:10:03;;;;;;;5.10;3.42;;;13.60;99.90;;;;;;5116991;28;20035;-79
2021/08/23 01:12:29;;;;;;;8.20;3.50;;;13.60;99.90;;;;;;5115346;28;20433;-78
2021/08/23 01:14:55;;;;;;;7.90;3.40;;;13.50;99.90;;;;;;5106510;28;20107;-79
2021/08/23 01:17:21;;;;;;;7.55;3.40;;;13.50;99.90;;;;;;5097899;28;20039;-79
2021/08/23 01:19:54;;;;;;;10.40;3.22;;;13.40;99.90;;;;;;5117321;28;20107;-78
2021/08/23 01:22:20;;;;;;;6.88;3.58;;;13.40;99.90;;;;;;5117123;28;20064;-79
2021/08/23 01:24:50;;;;;;;5.28;3.35;;;13.40;99.90;;;;;;5115832;28;20027;-79
2021/08/23 01:27:16;;;;;;;8.57;3.42;;;13.40;99.90;;;;;;5099326;28;20114;-79
2021/08/23 01:29:59;;;;;;;6.85;3.58;;;13.40;99.90;;;;;;5115865;28;20038;-79
2021/08/23 01:32:26;;;;;;;7.45;3.50;;;13.30;99.90;;;;;;5115116;28;20020;-80
2021/08/23 01:34:53;;;;;;;6.72;3.30;;;13.30;99.90;;;;;;5117317;28;20294;-79
2021/08/23 01:37:21;;;;;;;5.28;3.15;;;13.30;99.90;;;;;;5116827;28;20118;-79
2021/08/23 01:39:47;;;;;;;7.85;3.35;;;13.30;99.90;;;;;;5114096;28;20488;-79
2021/08/23 01:42:14;;;;;;;8.38;3.10;;;13.20;99.90;;;;;;5119085;28;20050;-79
2021/08/23 01:44:40;;;;;;;4.40;3.13;;;13.20;99.90;;;;;;5118861;28;20049;-79
2021/08/23 01:47:07;;;;;;;7.72;3.70;;;13.20;99.90;;;;;;5119202;28;20107;-79
2021/08/23 01:49:33;;;;;;;7.32;3.42;;;13.20;99.90;;;;;;5119176;28;20079;-79
2021/08/23 01:51:58;;;;;;;5.75;3.30;;;13.20;99.90;;;;;;5113227;28;20031;-78
2021/08/23 01:54:24;;;;;;;6.15;3.28;;;13.20;99.90;;;;;;5114887;28;20031;-78
2021/08/23 01:56:50;;;;;;;6.93;3.75;;;13.20;99.90;;;;;;5116912;28;20080;-79
2021/08/23 01:59:15;;;;;;;11.10;3.78;;;13.20;99.90;;;;;;5117101;28;20457;-79
2021/08/23 02:01:41;;;;;;;3.60;2.78;;;13.30;99.90;;;;;;5117751;28;20023;-79
2021/08/23 02:04:07;;;;;;;5.20;3.40;;;13.30;99.90;;;;;;5117490;28;20058;-79
2021/08/23 02:06:33;;;;;;;10.00;3.45;;;13.30;99.90;;;;;;5118725;28;20032;-79
2021/08/23 02:08:58;;;;;;;5.90;3.60;;;13.30;99.90;;;;;;5094443;28;20039;-79
2021/08/23 02:11:24;;;;;;;5.70;3.75;;;13.30;99.90;;;;;;5116144;28;20035;-79
2021/08/23 02:13:54;;;;;;;6.15;3.40;;;13.30;99.90;;;;;;5115604;28;20036;-79
2021/08/23 02:16:20;;;;;;;7.10;3.85;;;13.30;99.90;;;;;;5117356;28;20030;-79
2021/08/23 02:18:45;;;;;;;9.77;3.20;;;13.30;99.90;;;;;;5115873;28;20392;-79
2021/08/23 02:21:11;;;;;;;6.97;3.90;;;13.30;99.90;;;;;;5115621;28;20030;-79
2021/08/23 02:23:37;;;;;;;3.83;3.05;;;13.30;99.90;;;;;;5115129;28;20035;-79
2021/08/23 02:26:02;;;;;;;5.38;3.30;;;13.30;99.90;;;;;;5115197;28;20102;-79
2021/08/23 02:28:28;;;;;;;6.10;3.20;;;13.30;99.90;;;;;;5095807;28;20498;-79
2021/08/23 02:30:54;;;;;;;6.40;3.60;;;13.30;99.90;;;;;;5113541;28;20024;-79
2021/08/23 02:33:20;;;;;;;5.47;2.90;;;13.40;99.90;;;;;;5100993;28;20032;-78
2021/08/23 02:35:46;;;;;;;3.53;2.95;;;13.40;99.90;;;;;;5089180;28;20043;-79
2021/08/23 02:38:12;;;;;;;10.32;3.28;;;13.40;99.90;;;;;;5113081;28;20027;-79
2021/08/23 02:40:38;;;;;;;5.70;3.15;;;13.40;99.90;;;;;;5113751;28;20024;-80
2021/08/23 02:43:04;;;;;;;8.18;2.90;;;13.40;99.90;;;;;;5112312;28;20365;-79
2021/08/23 02:45:29;;;;;;;5.50;3.20;;;13.40;99.90;;;;;;5110375;28;20036;-79
2021/08/23 02:47:56;;;;;;;7.35;3.30;;;13.40;99.90;;;;;;5110702;28;20059;-79
2021/08/23 02:50:22;;;;;;;5.10;3.28;;;13.40;99.90;;;;;;5111659;28;20468;-78
2021/08/23 02:52:47;;;;;;;5.22;3.25;;;13.40;99.90;;;;;;5112824;28;20039;-79
2021/08/23 02:55:13;;;;;;;7.88;3.17;;;13.40;99.90;;;;;;5111519;28;20028;-80
2021/08/23 02:57:38;;;;;;;7.25;3.10;;;13.40;99.90;;;;;;5113750;28;20118;-79
2021/08/23 03:00:07;;;;;;;7.88;3.03;;;13.40;99.90;;;;;;5094353;28;20736;-79
2021/08/23 03:02:32;;;;;;;4.10;2.83;;;13.40;99.90;;;;;;5112365;28;20045;-79
2021/08/23 03:04:58;;;;;;;6.20;2.95;;;13.40;99.90;;;;;;5111732;28;20154;-79
2021/08/23 03:07:24;;;;;;;11.77;3.30;;;13.40;99.90;;;;;;5111818;28;20453;-79
2021/08/23 03:09:49;;;;;;;5.82;3.30;;;13.40;99.90;;;;;;5081536;28;20036;-80
2021/08/23 03:12:15;;;;;;;5.10;3.03;;;13.40;99.90;;;;;;5107109;28;20097;-79
2021/08/23 03:14:41;;;;;;;5.40;3.20;;;13.40;99.90;;;;;;5111813;28;20035;-79
2021/08/23 03:17:07;;;;;;;6.80;3.20;;;13.40;99.90;;;;;;5113623;28;20046;-78
2021/08/23 03:19:33;;;;;;;5.18;2.97;;;13.40;99.90;;;;;;5115573;28;20038;-80
2021/08/23 03:21:58;;;;;;;5.10;2.97;;;13.50;99.90;;;;;;5109900;28;20380;-79
2021/08/23 03:24:24;;;;;;;4.28;2.90;;;13.50;99.90;;;;;;5117058;28;20596;-79
2021/08/23 03:26:49;;;;;;;3.97;2.53;;;13.50;99.90;;;;;;5115765;28;20110;-79
2021/08/23 03:29:15;;;;;;;5.20;2.85;;;13.50;99.90;;;;;;5113866;28;20149;-79
2021/08/23 03:31:41;;;;;;;8.38;3.25;;;13.50;99.90;;;;;;5098748;28;20042;-79
2021/08/23 03:34:12;;;;;;;7.70;3.17;;;13.50;99.90;;;;;;5117258;28;20056;-79
2021/08/23 03:36:38;;;;;;;5.93;2.90;;;13.50;99.90;;;;;;5117534;28;20034;-80
2021/08/23 03:39:04;;;;;;;4.78;2.72;;;13.50;99.90;;;;;;5117585;28;20043;-79
2021/08/23 03:41:29;;;;;;;4.82;2.80;;;13.60;99.90;;;;;;5099498;28;20023;-79
2021/08/23 03:43:55;;;;;;;7.22;3.13;;;13.60;99.90;;;;;;5102753;28;20036;-79
2021/08/23 03:46:21;;;;;;;6.93;2.70;;;13.60;99.90;;;;;;5120470;28;20031;-79
2021/08/23 03:48:46;;;;;;;4.38;3.08;;;13.60;99.90;;;;;;5119579;28;20031;-79
2021/08/23 03:51:12;;;;;;;6.05;2.72;;;13.50;99.90;;;;;;5116181;28;20035;-79
2021/08/23 03:53:38;;;;;;;7.93;2.92;;;13.60;99.90;;;;;;5115344;28;20039;-78
2021/08/23 03:56:03;;;;;;;6.35;3.28;;;13.60;99.90;;;;;;5116300;28;20152;-79
2021/08/23 03:58:29;;;;;;;6.22;2.92;;;13.60;99.90;;;;;;5116271;28;20039;-79
2021/08/23 04:00:58;;;;;;;4.57;2.60;;;13.60;99.90;;;;;;5118077;28;20030;-79
2021/08/23 04:03:23;;;;;;;4.65;2.88;;;13.60;99.90;;;;;;5116922;28;20028;-79
2021/08/23 04:05:49;;;;;;;3.88;2.60;;;13.60;99.90;;;;;;5117824;28;20923;-80
2021/08/23 04:08:14;;;;;;;6.90;2.63;;;13.70;99.90;;;;;;5116913;28;20434;-79
2021/08/23 04:10:40;;;;;;;7.40;3.10;;;13.70;99.90;;;;;;5126392;28;20024;-78
2021/08/23 04:13:05;;;;;;;4.93;2.80;;;13.60;99.90;;;;;;5123170;28;20032;-80
2021/08/23 04:15:32;;;;;;;4.18;2.72;;;13.70;99.90;;;;;;5119490;28;20040;-79
2021/08/23 04:17:59;;;;;;;3.72;2.65;;;13.70;99.90;;;;;;5122051;28;20111;-79
2021/08/23 04:20:25;;;;;;;5.63;2.97;;;13.70;99.90;;;;;;5121335;28;20071;-79
2021/08/23 04:22:50;;;;;;;3.88;3.13;;;13.60;99.90;;;;;;5121907;28;20058;-78
2021/08/23 04:25:16;;;;;;;7.35;3.13;;;13.70;99.90;;;;;;5119525;28;20463;-78
2021/08/23 04:27:41;;;;;;;5.47;3.10;;;13.70;99.90;;;;;;5103233;28;20027;-78
2021/08/23 04:30:07;;;;;;;6.05;2.95;;;13.60;99.90;;;;;;5104730;28;20039;-79
2021/08/23 04:32:33;;;;;;;7.85;2.80;;;13.70;99.90;;;;;;5115439;28;20107;-80
2021/08/23 04:34:59;;;;;;;4.53;2.70;;;13.70;99.90;;;;;;5101705;28;20494;-79
2021/08/23 04:37:24;;;;;;;5.80;2.90;;;13.70;99.90;;;;;;5117121;28;20035;-78
2021/08/23 04:39:50;;;;;;;8.07;3.05;;;13.70;99.90;;;;;;5120439;28;20087;-78
2021/08/23 04:42:15;;;;;;;6.47;3.00;;;13.70;99.90;;;;;;5124693;28;20023;-79
2021/08/23 04:44:44;;;;;;;5.03;2.80;;;13.70;99.90;;;;;;5126822;28;20054;-79
2021/08/23 04:47:10;;;;;;;6.65;3.03;;;13.70;99.90;;;;;;5105799;28;21123;-79
2021/08/23 04:49:36;;;;;;;4.88;2.88;;;13.70;99.90;;;;;;5124978;28;20019;-79
2021/08/23 04:52:02;;;;;;;4.18;3.05;;;13.70;99.90;;;;;;5125878;28;20027;-78
2021/08/23 04:54:27;;;;;;;6.53;3.05;;;13.80;99.90;;;;;;5127049;28;20031;-78
2021/08/23 04:56:53;;;;;;;4.45;2.67;;;13.70;99.90;;;;;;5119124;28;20089;-76
2021/08/23 04:59:18;;;;;;;6.38;2.85;;;13.70;99.90;;;;;;5096698;28;20031;-76
2021/08/23 05:01:44;;;;;;;5.35;2.95;;;13.70;99.90;;;;;;5109285;28;20484;-79
2021/08/23 05:04:10;;;;;;;4.65;2.83;;;13.80;99.90;;;;;;5086007;28;20062;-75
2021/08/23 05:06:35;;;;;;;5.53;3.53;;;13.80;99.90;;;;;;5100787;28;20142;-75
2021/08/23 05:09:01;;;;;;;5.65;2.65;;;13.80;99.90;;;;;;5092740;28;20434;-74
2021/08/23 05:11:27;;;;;;;3.72;2.92;;;13.80;99.90;;;;;;5096214;28;20031;-76
2021/08/23 05:13:53;;;;;;;6.43;3.42;;;13.90;99.90;;;;;;5096361;28;20443;-77
2021/08/23 05:16:18;;;;;;;4.65;3.13;;;13.90;99.90;;;;;;5114942;28;20102;-78
2021/08/23 05:18:44;;;;;;;6.60;2.70;;;14.00;99.90;;;;;;5114515;28;20055;-75
2021/08/23 05:21:10;;;;;;;5.82;3.10;;;14.00;99.90;;;;;;5107273;28;20453;-79
2021/08/23 05:23:35;;;;;;;5.53;3.03;;;14.00;99.90;;;;;;5114902;28;20063;-76
2021/08/23 05:26:05;;;;;;;4.38;3.20;;;14.10;99.90;;;;;;5114276;28;20448;-77
2021/08/23 05:28:30;;;;;;;3.88;2.50;;;14.10;99.90;;;;;;5114458;28;20027;-75
2021/08/23 05:30:56;;;;;;;5.53;2.95;;;14.10;99.90;;;;;;5114630;28;20080;-75
2021/08/23 05:33:21;;;;;;;6.60;2.90;;;14.10;99.90;;;;;;5114824;28;20380;-75
2021/08/23 05:35:47;;;;;;;4.00;2.70;;;14.20;99.90;;;;;;5118670;28;20028;-75
2021/08/23 05:38:13;;;;;;;4.50;2.58;;;14.20;99.90;;;;;;5114899;28;20081;-79
2021/08/23 05:40:39;;;;;;;6.95;2.80;;;14.30;99.90;;;;;;5113335;28;20031;-78
2021/08/23 05:43:05;;;;;;;6.95;3.20;;;14.30;99.90;;;;;;5114034;28;20027;-77
2021/08/23 05:45:31;;;;;;;10.10;3.17;;;14.40;99.90;;;;;;5101207;28;20050;-76
2021/08/23 05:47:57;;;;;;;5.43;2.90;;;14.30;99.90;;;;;;5113084;28;20031;-78
2021/08/23 05:50:22;;;;;;;5.43;2.63;;;14.40;99.90;;;;;;5114184;28;20055;-79
2021/08/23 05:52:48;;;;;;;5.40;2.90;;;14.40;99.90;;;;;;5095898;28;20092;-79
2021/08/23 05:55:13;;;;;;;5.55;2.58;;;14.50;99.90;;;;;;5114009;28;20036;-79
2021/08/23 05:57:39;;;;;;;7.20;2.72;;;14.60;99.90;;;;;;5113995;28;20024;-79
2021/08/23 06:00:06;;;;;;;6.90;2.80;;;14.60;99.90;;;;;;5114341;28;20452;-79
2021/08/23 06:02:32;;;;;;;5.45;2.97;;;14.60;99.90;;;;;;5113686;28;20103;-80
2021/08/23 06:04:58;;;;;;;5.28;3.05;;;14.70;99.90;;;;;;5114750;28;20077;-80
2021/08/23 06:07:24;;;;;;;4.88;2.80;;;14.70;99.90;;;;;;5108836;28;20414;-80
2021/08/23 06:09:49;;;;;;;4.63;2.53;;;14.80;99.90;;;;;;5103881;28;20051;-80
2021/08/23 06:12:15;;;;;;;5.20;3.00;;;14.80;99.90;;;;;;5100208;28;20027;-80
2021/08/23 06:14:43;;;;;;;4.82;2.75;;;14.80;99.90;;;;;;5101491;28;20104;-80
2021/08/23 06:17:12;;;;;;;5.20;2.80;;;14.90;99.90;;;;;;5104539;28;20051;-79
2021/08/23 06:19:37;;;;;;;6.18;2.83;;;14.90;99.90;;;;;;5103806;28;20024;-76
2021/08/23 06:22:03;;;;;;;6.22;2.72;;;15.00;99.90;;;;;;5075089;28;20030;-76
2021/08/23 06:24:29;;;;;;;5.68;3.10;;;15.00;99.90;;;;;;5093600;28;20103;-76
2021/08/23 06:26:54;;;;;;;3.97;2.60;;;15.10;99.90;;;;;;5093160;28;20028;-76
2021/08/23 06:29:20;;;;;;;8.45;2.90;;;15.10;99.90;;;;;;5075020;28;20391;-76
2021/08/23 06:31:45;;;;;;;7.15;2.50;;;15.20;99.90;;;;;;5102696;28;20114;-80
2021/08/23 06:34:11;;;;;;;3.85;2.75;;;15.20;99.90;;;;;;5108935;28;20047;-80
2021/08/23 06:36:39;;;;;;;7.00;2.88;;;15.30;99.90;;;;;;5095142;28;20429;-78
2021/08/23 06:39:04;;;;;;;5.82;2.70;;;15.30;99.90;;;;;;5111632;28;20161;-80
2021/08/23 06:41:30;;;;;;;4.88;2.58;;;15.40;99.90;;;;;;5108888;28;20114;-80
2021/08/23 06:43:55;;;;;;;5.60;2.53;;;15.40;99.90;;;;;;5117835;28;20441;-79
2021/08/23 06:46:21;;;;;;;6.18;2.72;;;15.50;99.90;;;;;;5118440;28;20031;-79
2021/08/23 06:48:47;;;;;;;7.55;3.17;;;15.50;99.90;;;;;;5126374;28;20028;-80
2021/08/23 06:51:15;;;;;;;5.63;3.00;;;15.60;99.90;;;;;;5125791;28;20077;-79
2021/08/23 06:53:41;;;;;;;15.50;3.25;;;15.60;99.90;;;;;;5117356;28;20035;-78
2021/08/23 06:56:07;;;;;;;3.55;2.75;;;15.60;99.90;;;;;;5131423;28;20053;-80
2021/08/23 06:58:32;;;;;;;4.43;2.65;;;15.70;99.90;;;;;;5131818;28;20023;-76
2021/08/23 07:00:58;;;;;;;4.20;2.50;;;15.80;99.90;;;;;;5117243;28;20035;-78
2021/08/23 07:03:23;;;;;;;4.85;2.70;;;15.90;99.90;;;;;;5106030;28;20084;-80
2021/08/23 07:05:49;;;;;;;6.03;2.70;;;15.90;99.90;;;;;;5101558;28;20032;-80
2021/08/23 07:08:15;;;;;;;7.72;2.70;;;16.00;99.90;;;;;;5119784;28;20073;-76
2021/08/23 07:10:41;;;;;;;3.40;2.28;;;15.90;99.90;;;;;;5117849;28;20023;-76
2021/08/23 07:13:06;;;;;;;3.72;2.25;;;16.00;99.90;;;;;;5117369;28;20043;-76
2021/08/23 07:15:32;;;;;;;5.53;2.60;;;16.00;99.90;;;;;;5116849;28;20035;-75
2021/08/23 07:17:57;;;;;;;4.20;2.38;;;16.00;99.90;;;;;;5116978;28;20043;-75
2021/08/23 07:20:23;;;;;;;5.38;2.72;;;16.00;99.90;;;;;;5117128;28;20023;-78
2021/08/23 07:22:49;;;;;;;3.53;2.38;;;16.00;99.90;;;;;;5116930;28;20032;-78
2021/08/23 07:25:14;;;;;;;5.93;2.15;;;15.90;99.90;;;;;;5115841;28;20356;-80
2021/08/23 07:27:40;;;;;;;5.28;2.40;;;16.00;99.90;;;;;;5109775;28;20020;-78
2021/08/23 07:30:07;;;;;;;5.25;3.05;;;16.00;99.90;;;;;;5098305;28;20495;-78
2021/08/23 07:32:33;;;;;;;7.97;3.47;;;15.90;99.90;;;;;;5116932;28;20072;-75
2021/08/23 07:34:59;;;;;;;4.22;3.20;;;16.00;99.90;;;;;;5116668;28;20110;-76
2021/08/23 07:37:24;;;;;;;4.45;2.97;;;16.00;99.90;;;;;;5117206;28;20016;-76
2021/08/23 07:39:50;;;;;;;5.07;2.90;;;15.90;99.90;;;;;;5110099;28;20016;-76
2021/08/23 07:42:16;;;;;;;8.18;2.97;;;15.90;99.90;;;;;;5096178;28;20028;-76
2021/08/23 07:44:46;;;;;;;5.43;3.03;;;16.00;99.90;;;;;;5096794;28;20028;-80
2021/08/23 07:47:12;;;;;;;18.55;3.72;;;16.10;99.90;;;;;;5114864;27;20089;-77
2021/08/23 07:49:37;;;;;;;4.75;3.05;;;16.20;99.90;;;;;;5137008;27;20409;-77
2021/08/23 07:52:03;;;;;;;3.65;2.50;;;16.30;99.90;;;;;;5137792;27;20098;-76
2021/08/23 07:54:29;;;;;;;5.43;3.00;;;16.20;99.90;;;;;;5086758;28;20036;-80
2021/08/23 07:56:54;;;;;;;4.00;2.78;;;16.20;99.90;;;;;;5113988;28;20024;-75
2021/08/23 07:59:20;;;;;;;5.53;3.10;;;16.20;99.90;;;;;;5108063;28;20070;-75
2021/08/23 08:01:45;;;;;;;4.05;2.95;;;16.10;99.90;;;;;;5091418;28;20024;-80
2021/08/23 08:04:14;;;;;;;6.40;2.95;;;16.10;99.90;;;;;;5093981;28;20044;-80
2021/08/23 08:06:44;;;;;;;8.70;3.05;;;16.10;99.90;;;;;;5095785;28;20032;-75
2021/08/23 08:09:11;;;;;;;6.63;3.40;;;16.10;99.90;;;;;;5096060;28;20028;-75
2021/08/23 08:11:37;;;;;;;4.03;2.60;;;16.10;99.90;;;;;;5102688;28;20043;-80
2021/08/23 08:14:02;;;;;;;5.53;3.13;;;16.10;99.90;;;;;;5096901;28;20035;-80
2021/08/23 08:16:28;;;;;;;6.55;3.22;;;16.00;99.90;;;;;;5103816;28;20036;-80
2021/08/23 08:18:54;;;;;;;5.88;2.95;;;16.10;99.90;;;;;;5112999;28;20130;-80
2021/08/23 08:21:21;;;;;;;4.72;3.08;;;16.10;99.90;;;;;;5120482;28;20022;-78
2021/08/23 08:23:52;;;;;;;6.57;3.72;;;16.10;99.90;;;;;;5123183;28;20821;-80
2021/08/23 08:26:19;;;;;;;6.30;3.20;;;16.20;99.90;;;;;;5125585;28;20027;-80
2021/08/23 08:28:44;;;;;;;5.10;3.70;;;16.20;99.90;;;;;;5123931;28;20102;-75
2021/08/23 08:31:10;;;;;;;5.70;2.75;;;16.30;99.90;;;;;;5119179;28;20054;-79
2021/08/23 08:33:35;;;;;;;6.78;3.35;;;16.40;99.90;;;;;;5097570;28;20344;-75
2021/08/23 08:36:01;;;;;;;4.72;2.80;;;16.60;99.90;;;;;;5113316;28;20027;-80
2021/08/23 08:38:26;;;;;;;4.70;2.60;;;16.70;99.90;;;;;;5110653;28;20360;-79
2021/08/23 08:40:57;;;;;;;6.32;3.22;;;16.90;99.90;;;;;;5129516;28;20111;-79
2021/08/23 08:43:22;;;;;;;5.07;2.90;;;17.00;99.90;;;;;;5115624;28;20153;-75
2021/08/23 08:45:48;;;;;;;5.28;3.10;;;17.10;99.90;;;;;;5115369;28;20507;-75
2021/08/23 08:48:14;;;;;;;5.07;3.15;;;17.30;99.90;;;;;;5115518;28;20028;-78
2021/08/23 08:50:40;;;;;;;5.60;2.75;;;17.40;99.90;;;;;;5115328;28;20356;-78
2021/08/23 08:53:07;;;;;;;5.90;3.10;;;17.50;99.90;;;;;;5101111;28;20042;-80
2021/08/23 08:55:36;;;;;;;4.60;2.53;;;17.50;99.90;;;;;;5101756;28;20031;-80
2021/08/23 08:58:05;;;;;;;7.03;2.75;;;17.50;99.90;;;;;;5098184;28;20028;-79
2021/08/23 09:00:37;;;;;;;4.90;2.72;;;17.50;99.90;;;;;;5099372;28;20415;-79
2021/08/23 09:03:04;;;;;;;4.10;2.53;;;17.50;99.90;;;;;;5093340;28;20028;-75
2021/08/23 09:05:37;;;;;;;4.57;2.50;;;17.30;99.90;;;;;;5094747;28;20044;-74
2021/08/23 09:08:06;;;;;;;4.40;2.55;;;17.40;99.90;;;;;;5093769;28;20024;-76
2021/08/23 09:10:34;;;;;;;5.10;2.63;;;17.20;99.90;;;;;;5091438;28;20478;-79
2021/08/23 09:13:03;;;;;;;4.05;2.90;;;17.30;99.90;;;;;;5113109;28;20473;-75
2021/08/23 09:15:28;;;;;;;10.10;3.38;;;17.30;99.90;;;;;;5114591;28;20067;-75
2021/08/23 09:18:05;;;;;;;5.50;3.08;;;17.40;99.90;;;;;;5114972;28;20055;-75
2021/08/23 09:20:32;;;;;;;8.13;3.10;;;17.40;99.90;;;;;;5114728;28;20150;-77
2021/08/23 09:23:12;;;;;;;6.68;3.10;;;17.50;99.90;;;;;;5114468;28;20110;-77
2021/08/23 09:25:38;;;;;;;3.95;2.67;;;17.50;99.90;;;;;;5114260;28;20027;-77
2021/08/23 09:28:06;;;;;;;9.02;3.50;;;17.60;99.90;;;;;;5114517;28;20031;-77
2021/08/23 09:30:32;;;;;;;5.18;3.00;;;17.60;99.90;;;;;;5114155;28;20430;-78
2021/08/23 09:33:01;;;;;;;5.70;2.90;;;17.50;99.90;;;;;;5114509;28;20058;-78
2021/08/23 09:35:33;;;;;;;6.30;3.47;;;17.30;99.90;;;;;;5114116;28;20092;-75
2021/08/23 09:37:59;;;;;;;5.88;3.25;;;17.30;99.90;;;;;;5097820;28;20043;-80
2021/08/23 09:40:33;;;;;;;7.95;3.60;;;17.30;99.90;;;;;;5109682;28;20052;-80
2021/08/23 09:43:08;;;;;;;5.45;3.10;;;17.30;99.90;;;;;;5095235;28;20085;-79
2021/08/23 09:45:33;;;;;;;3.88;2.40;;;17.30;99.90;;;;;;5088454;28;20126;-80
2021/08/23 09:48:04;;;;;;;3.72;2.30;;;17.30;99.90;;;;;;5097543;28;20110;-80
2021/08/23 09:50:39;;;;;;;3.42;2.20;;;17.20;99.90;;;;;;5102275;28;20112;-80
2021/08/23 09:53:13;;;;;;;4.35;2.50;;;17.20;99.90;;;;;;5107225;28;20035;-80
2021/08/23 09:55:41;;;;;;;3.57;2.33;;;17.50;99.90;;;;;;5093581;28;20081;-79
2021/08/23 09:58:08;;;;;;;3.22;2.17;;;17.90;99.90;;;;;;5112231;28;20479;-77
2021/08/23 10:00:35;;;;;;;5.60;2.33;;;18.10;99.90;;;;;;5113385;28;20039;-78
2021/08/23 10:03:05;;;;;;;4.03;2.47;;;18.10;99.90;;;;;;5114465;27;20075;-77
2021/08/23 10:05:31;;;;;;;3.60;2.40;;;18.10;99.90;;;;;;5105858;27;20039;-78
2021/08/23 10:07:57;;;;;;;5.53;2.55;;;18.00;99.90;;;;;;5098766;28;20024;-78
2021/08/23 10:10:24;;;;;;;5.43;2.35;;;18.00;99.90;;;;;;5117211;28;20532;-78
2021/08/23 10:12:50;;;;;;;4.88;2.20;;;18.20;99.90;;;;;;5108034;28;20027;-79
2021/08/23 10:15:15;;;;;;;3.50;2.05;;;18.20;99.90;;;;;;5099595;28;20031;-79
2021/08/23 10:17:41;;;;;;;3.30;2.10;;;18.20;99.90;;;;;;5106311;28;20032;-79
2021/08/23 10:20:09;;;;;;;4.28;2.42;;;18.10;99.90;;;;;;5106411;28;20565;-79
2021/08/23 10:22:38;;;;;;;6.18;2.33;;;18.10;99.90;;;;;;5122571;27;20081;-77
2021/08/23 10:25:05;;;;;;;5.07;2.63;;;18.00;99.90;;;;;;5133745;27;20092;-77
2021/08/23 10:27:35;;;;;;;4.07;2.17;;;17.90;99.90;;;;;;5130881;27;20106;-77
2021/08/23 10:30:01;;;;;;;4.45;1.95;;;17.80;99.90;;;;;;5113340;28;20417;-76
2021/08/23 10:32:35;;;;;;;4.43;2.28;;;17.80;99.90;;;;;;5113269;28;20031;-78
2021/08/23 10:35:24;;;;;;;5.18;2.72;;;18.00;99.90;;;;;;5113538;28;20478;-75
2021/08/23 10:37:51;;;;;;;3.65;2.30;;;18.20;99.90;;;;;;5113619;28;20146;-76
2021/08/23 10:40:25;;;;;;;3.92;2.78;;;18.60;99.90;;;;;;5094999;28;20023;-77
2021/08/23 10:42:51;;;;;;;6.03;2.83;;;18.90;99.90;;;;;;5113454;28;20047;-76
2021/08/23 10:45:18;;;;;;;6.30;2.90;;;19.30;99.90;;;;;;5113163;28;20034;-76
2021/08/23 10:47:48;;;;;;;5.47;2.47;;;19.60;99.90;;;;;;5113356;28;20026;-76
2021/08/23 10:50:21;;;;;;;3.25;1.90;;;19.80;99.90;;;;;;5113085;28;20016;-76
2021/08/23 10:52:48;;;;;;;4.10;2.42;;;19.80;99.90;;;;;;5113374;28;20088;-76
2021/08/23 10:55:26;;;;;;;5.00;2.60;;;19.90;99.90;;;;;;5113400;28;20451;-76
2021/08/23 10:58:10;;;;;;;5.82;2.30;;;19.70;99.90;;;;;;5108910;28;20023;-77
2021/08/23 11:00:42;;;;;;;4.23;2.30;;;19.60;99.90;;;;;;5113200;28;20512;-76
2021/08/23 11:03:09;;;;;;;4.30;2.22;;;19.70;99.90;;;;;;5113041;28;20307;-77
2021/08/23 11:05:36;;;;;;;4.85;2.65;;;19.70;99.90;;;;;;5112691;28;20032;-76
2021/08/23 11:08:08;;;;;;;5.43;2.30;;;19.80;99.90;;;;;;5113459;28;20046;-76
2021/08/23 11:10:36;;;;;;;4.93;2.30;;;19.90;99.90;;;;;;5112769;28;20095;-76
2021/08/23 11:13:17;;;;;;;3.92;2.10;;;20.10;99.90;;;;;;5111903;28;20023;-78
2021/08/23 11:15:44;;;;;;;3.97;1.80;;;20.30;99.90;;;;;;5115415;28;20027;-77
2021/08/23 11:18:18;;;;;;;4.72;2.42;;;20.70;99.90;;;;;;5111601;28;20027;-77
2021/08/23 11:20:48;;;;;;;4.60;2.08;;;20.90;99.90;;;;;;5109178;28;20023;-77
2021/08/23 11:23:16;;;;;;;4.50;2.10;;;21.00;99.90;;;;;;5113799;28;20020;-78
2021/08/23 11:25:48;;;;;;;5.82;2.42;;;21.10;99.90;;;;;;5115146;28;20043;-77
2021/08/23 11:28:22;;;;;;;6.10;2.10;;;21.30;99.90;;;;;;5114719;28;20027;-78
2021/08/23 11:30:51;;;;;;;4.07;2.28;;;21.30;99.90;;;;;;5104425;28;20073;-78
2021/08/23 11:33:27;;;;;;;4.30;2.30;;;21.20;99.90;;;;;;5095242;28;20070;-76
2021/08/23 11:35:54;;;;;;;5.05;2.17;;;21.10;99.90;;;;;;5093399;28;20020;-76
2021/08/23 11:38:30;;;;;;;5.50;2.25;;;21.30;99.90;;;;;;5095918;28;20039;-76
2021/08/23 11:40:56;;;;;;;4.32;2.15;;;21.50;99.90;;;;;;5078250;28;20020;-76
2021/08/23 11:43:26;;;;;;;4.95;2.60;;;21.30;99.90;;;;;;5096185;28;20373;-76
2021/08/23 11:45:52;;;;;;;5.25;2.45;;;21.30;99.90;;;;;;5096118;28;20035;-76
2021/08/23 11:48:18;;;;;;;4.15;2.15;;;21.40;99.90;;;;;;5096330;28;20032;-76
2021/08/23 11:50:45;;;;;;;4.22;2.10;;;21.80;99.90;;;;;;5095908;28;20427;-76
2021/08/23 11:53:12;;;;;;;4.80;2.10;;;21.90;99.90;;;;;;5094641;28;20020;-78
2021/08/23 11:55:40;;;;;;;4.28;2.10;;;21.90;99.90;;;;;;5091230;28;20024;-78
2021/08/23 11:58:09;;;;;;;5.40;2.22;;;22.00;99.90;;;;;;5108959;28;20043;-78
2021/08/23 12:00:36;;;;;;;4.43;2.25;;;22.00;99.90;;;;;;5097073;28;20024;-79
2021/08/23 12:03:04;;;;;;;4.57;1.60;;;22.10;99.90;;;;;;5098163;28;20020;-78
2021/08/23 12:05:39;;;;;;;4.88;2.20;;;22.30;99.90;;;;;;5105498;28;20122;-78
2021/08/23 12:08:05;;;;;;;;;;;22.00;99.90;;;;;;5107976;28;20044;-78
2021/08/23 12:10:34;;;;;;;3.55;1.92;;;22.10;99.90;;;;;;5107861;28;19915;-78
2021/08/23 12:13:14;;;;;;;5.70;2.20;;;22.10;99.90;;;;;;5107361;28;20028;-79
2021/08/23 12:15:51;;;;;;;6.70;2.20;;;22.20;99.90;;;;;;5107386;28;20023;-79
2021/08/23 12:18:17;;;;;;;6.22;1.92;;;22.40;99.90;;;;;;5110164;28;20031;-79
2021/08/23 12:20:43;;;;;;;8.10;1.90;;;22.60;99.90;;;;;;5111542;28;20784;-79
2021/08/23 12:23:08;;;;;;;3.70;1.92;;;22.60;99.90;;;;;;5106815;28;20043;-79
2021/08/23 12:25:34;;;;;;;4.85;1.83;;;22.30;99.90;;;;;;5107409;28;20039;-79
2021/08/23 12:27:59;;;;;;;5.50;2.00;;;22.10;99.90;;;;;;5107229;28;20543;-78
2021/08/23 12:30:34;;;;;;;5.65;2.22;;;21.80;99.90;;;;;;5107202;28;20031;-79
2021/08/23 12:33:00;;;;;;;4.10;2.20;;;21.30;99.90;;;;;;5101162;28;20034;-79
2021/08/23 12:35:29;;;;;;;7.18;2.10;;;20.80;99.90;;;;;;5107375;28;20379;-78
2021/08/23 12:37:55;;;;;;;4.30;2.40;;;20.50;99.90;;;;;;5106580;28;20019;-78
2021/08/23 12:40:21;;;;;;;4.80;2.45;;;20.20;99.90;;;;;;5106120;28;20934;-78
2021/08/23 12:42:55;;;;;;;5.63;2.45;;;19.90;99.90;;;;;;5088506;28;20108;-78
2021/08/23 12:45:21;;;;;;;5.63;2.08;;;19.90;99.90;;;;;;5093067;28;20030;-78
2021/08/23 12:47:46;;;;;;;4.32;1.60;;;19.90;99.90;;;;;;5106942;28;20039;-78